createdAt,value
2022-10-01T00:00:35.125Z,24.95
2022-10-01T00:03:37.662Z,25.52
2022-10-01T00:06:39.758Z,23.75
2022-10-01T00:09:41.969Z,27.50
2022-10-01T00:12:48.050Z,24.67
2022-10-01T00:15:50.144Z,23.85
2022-10-01T00:18:55.606Z,26.98
2022-10-01T00:21:57.711Z,24.60
2022-10-01T00:24:59.826Z,22.73
2022-10-01T00:28:02.025Z,22.73
2022-10-01T00:31:05.731Z,24.10
2022-10-01T00:34:07.951Z,23.08
2022-10-01T00:37:10.525Z,26.13
2022-10-01T00:40:12.666Z,28.17
2022-10-01T00:43:25.089Z,22.10
2022-10-01T00:46:30.048Z,25.65
2022-10-01T00:49:33.735Z,21.98
2022-10-01T00:52:37.115Z,23.45
2022-10-01T00:55:44.107Z,25.65
2022-10-01T00:58:46.355Z,22.97
2022-10-01T01:01:48.890Z,24.67
2022-10-01T01:04:51.113Z,24.45
2022-10-01T01:07:53.690Z,25.10
2022-10-01T01:11:14.410Z,25.55
2022-10-01T01:14:21.271Z,24.40
2022-10-01T01:17:29.906Z,24.73
2022-10-01T01:21:01.208Z,24.83
2022-10-01T01:24:12.344Z,24.60
2022-10-01T01:27:23.337Z,24.75
2022-10-01T01:30:26.453Z,27.97
2022-10-01T01:33:31.108Z,20.02
2022-10-01T01:36:37.200Z,24.58
2022-10-01T01:39:41.560Z,20.48
2022-10-01T01:42:45.595Z,24.05
2022-10-01T01:45:50.097Z,21.13
2022-10-01T01:48:53.444Z,24.48
2022-10-01T01:52:01.252Z,25.00
2022-10-01T01:55:08.569Z,23.40
2022-10-01T01:58:10.718Z,24.60
2022-10-01T02:01:33.262Z,23.77
2022-10-01T02:04:47.227Z,24.52
2022-10-01T02:08:07.899Z,23.92
2022-10-01T02:11:15.970Z,25.75
2022-10-01T02:14:21.214Z,25.48
2022-10-01T02:17:33.266Z,27.10
2022-10-01T02:20:41.765Z,30.33
2022-10-01T02:23:47.578Z,34.47
2022-10-01T02:26:51.032Z,29.55
2022-10-01T02:29:55.643Z,28.13
2022-10-01T02:33:00.028Z,25.93
2022-10-01T02:36:04.868Z,27.73
2022-10-01T02:39:07.436Z,32.22
2022-10-01T02:42:12.588Z,29.27
2022-10-01T02:45:15.731Z,29.05
2022-10-01T02:48:18.293Z,33.97
2022-10-01T02:51:39.417Z,33.55
2022-10-01T02:54:54.886Z,43.80
2022-10-01T02:57:57.333Z,29.70
2022-10-01T03:00:59.527Z,27.67
2022-10-01T03:04:02.321Z,29.03
2022-10-01T03:07:04.801Z,32.08
2022-10-01T03:10:07.947Z,29.40
2022-10-01T03:13:10.092Z,35.17
2022-10-01T03:16:12.306Z,34.58
2022-10-01T03:19:14.422Z,34.87
2022-10-01T03:22:22.803Z,36.22
2022-10-01T03:25:25.083Z,32.90
2022-10-01T03:28:27.746Z,34.65
2022-10-01T03:31:30.184Z,37.58
2022-10-01T03:34:32.442Z,34.17
2022-10-01T03:37:34.521Z,36.75
2022-10-01T03:40:39.156Z,34.03
2022-10-01T03:43:41.307Z,34.90
2022-10-01T03:46:44.035Z,36.97
2022-10-01T03:49:46.043Z,33.37
2022-10-01T03:52:48.161Z,27.55
2022-10-01T03:55:50.407Z,29.80
2022-10-01T03:58:52.323Z,31.98
2022-10-01T04:01:54.665Z,31.90
2022-10-01T04:04:56.762Z,36.63
2022-10-01T04:07:59.733Z,33.50
2022-10-01T04:11:01.714Z,36.30
2022-10-01T04:14:03.682Z,34.63
2022-10-01T04:17:05.585Z,35.05
2022-10-01T04:20:08.518Z,31.67
2022-10-01T04:23:10.491Z,32.75
2022-10-01T04:26:12.431Z,32.78
2022-10-01T04:29:14.461Z,36.28
2022-10-01T04:32:21.639Z,28.38
2022-10-01T04:35:23.620Z,31.60
2022-10-01T04:38:26.515Z,30.17
2022-10-01T04:41:30.667Z,30.20
2022-10-01T04:44:33.000Z,27.23
2022-10-01T04:47:37.570Z,31.23
2022-10-01T04:50:39.764Z,26.30
2022-10-01T04:53:41.829Z,27.40
2022-10-01T04:56:43.769Z,31.23
2022-10-01T04:59:45.676Z,26.45
2022-10-01T05:02:49.174Z,27.45
2022-10-01T05:05:51.354Z,25.77
2022-10-01T05:08:53.284Z,24.08
2022-10-01T05:11:55.250Z,30.33
2022-10-01T05:14:57.255Z,25.10
2022-10-01T05:17:59.183Z,24.80
2022-10-01T05:21:07.810Z,26.57
2022-10-01T05:24:10.048Z,25.65
2022-10-01T05:27:15.116Z,27.40
2022-10-01T05:30:22.227Z,26.13
2022-10-01T05:33:24.148Z,26.15
2022-10-01T05:36:26.060Z,25.23
2022-10-01T05:39:28.069Z,22.95
2022-10-01T05:42:29.977Z,27.50
2022-10-01T05:45:32.479Z,26.67
2022-10-01T05:48:37.034Z,21.77
2022-10-01T05:51:39.367Z,21.57
2022-10-01T05:54:41.347Z,24.10
2022-10-01T05:57:43.279Z,23.33
2022-10-01T06:00:45.270Z,24.30
2022-10-01T06:03:50.799Z,30.73
2022-10-01T06:06:56.413Z,31.37
2022-10-01T06:09:58.339Z,35.83
2022-10-01T06:13:01.873Z,29.77
2022-10-01T06:16:03.952Z,25.63
2022-10-01T06:19:05.973Z,26.15
2022-10-01T06:22:07.921Z,27.17
2022-10-01T06:25:11.053Z,23.70
2022-10-01T06:28:14.873Z,24.27
2022-10-01T06:31:21.261Z,24.40
2022-10-01T06:34:23.306Z,23.80
2022-10-01T06:37:25.357Z,22.08
2022-10-01T06:40:29.505Z,21.73
2022-10-01T06:43:31.739Z,24.10
2022-10-01T06:46:33.665Z,22.05
2022-10-01T06:49:35.634Z,18.97
2022-10-01T06:52:49.702Z,23.15
2022-10-01T06:55:51.659Z,19.58
2022-10-01T06:58:53.609Z,19.92
2022-10-01T07:01:56.493Z,24.45
2022-10-01T07:04:59.067Z,20.77
2022-10-01T07:08:01.253Z,21.17
2022-10-01T07:11:03.587Z,20.63
2022-10-01T07:14:05.520Z,19.55
2022-10-01T07:17:07.435Z,19.25
2022-10-01T07:20:09.489Z,24.03
2022-10-01T07:23:15.227Z,23.42
2022-10-01T07:26:17.331Z,33.05
2022-10-01T07:29:19.264Z,31.33
2022-10-01T07:32:21.307Z,53.47
2022-10-01T07:35:23.440Z,29.07
2022-10-01T07:38:25.339Z,28.25
2022-10-01T07:41:27.318Z,41.55
2022-10-01T07:44:29.512Z,26.50
2022-10-01T07:47:31.561Z,30.27
2022-10-01T07:50:33.469Z,29.10
2022-10-01T07:53:35.413Z,23.10
2022-10-01T07:56:37.556Z,23.95
2022-10-01T07:59:40.943Z,33.22
2022-10-01T08:02:46.671Z,36.13
2022-10-01T08:05:49.599Z,41.97
2022-10-01T08:08:51.517Z,34.15
2022-10-01T08:11:53.468Z,34.55
2022-10-01T08:14:55.960Z,36.75
2022-10-01T08:18:00.620Z,32.83
2022-10-01T08:21:02.624Z,33.07
2022-10-01T08:24:05.058Z,38.80
2022-10-01T08:27:07.189Z,45.42
2022-10-01T08:30:09.420Z,29.83
2022-10-01T08:33:12.202Z,24.67
2022-10-01T08:36:14.432Z,19.53
2022-10-01T08:39:16.444Z,20.05
2022-10-01T08:42:18.679Z,31.83
2022-10-01T08:45:26.497Z,37.95
2022-10-01T08:48:37.722Z,19.20
2022-10-01T08:51:42.213Z,14.53
2022-10-01T08:54:53.494Z,8.60
2022-10-01T08:57:58.326Z,12.02
2022-10-01T09:01:00.333Z,13.38
2022-10-01T09:04:02.430Z,16.05
2022-10-01T09:07:09.571Z,11.37
2022-10-01T09:10:29.554Z,14.60
2022-10-01T09:13:51.644Z,14.82
2022-10-01T09:17:02.732Z,14.00
2022-10-01T09:20:17.567Z,8.82
2022-10-01T09:23:25.085Z,6.80
2022-10-01T09:26:27.095Z,6.43
2022-10-01T09:30:04.942Z,13.77
2022-10-01T09:33:17.377Z,7.72
2022-10-01T09:36:22.317Z,7.18
2022-10-01T09:39:29.403Z,12.27
2022-10-01T09:42:31.484Z,10.18
2022-10-01T09:45:34.372Z,9.13
2022-10-01T09:48:46.252Z,6.55
2022-10-01T09:51:49.889Z,9.10
2022-10-01T09:55:03.246Z,6.70
2022-10-01T09:58:09.948Z,5.25
2022-10-01T10:01:18.191Z,6.38
2022-10-01T10:04:21.395Z,7.55
2022-10-01T10:07:23.420Z,10.90
2022-10-01T10:10:29.693Z,7.40
2022-10-01T10:13:36.078Z,11.15
2022-10-01T10:16:46.187Z,14.30
2022-10-01T10:19:51.673Z,16.92
2022-10-01T10:22:53.916Z,13.15
2022-10-01T10:25:56.868Z,15.50
2022-10-01T10:28:59.395Z,15.15
2022-10-01T10:32:06.960Z,11.43
2022-10-01T10:35:11.204Z,20.17
2022-10-01T10:38:18.139Z,13.13
2022-10-01T10:41:26.087Z,12.07
2022-10-01T10:44:36.221Z,14.10
2022-10-01T10:47:44.088Z,13.63
2022-10-01T10:50:46.488Z,14.48
2022-10-01T10:53:49.525Z,14.00
2022-10-01T10:56:52.745Z,12.37
2022-10-01T10:59:56.257Z,11.95
2022-10-01T11:03:00.011Z,16.83
2022-10-01T11:06:04.473Z,12.32
2022-10-01T11:09:09.953Z,15.50
2022-10-01T11:12:39.159Z,11.07
2022-10-01T11:15:42.128Z,10.63
2022-10-01T11:18:44.112Z,19.75
2022-10-01T11:21:48.864Z,9.55
2022-10-01T11:25:14.746Z,9.85
2022-10-01T11:28:35.041Z,10.87
2022-10-01T11:31:40.399Z,8.18
2022-10-01T11:34:48.689Z,8.93
2022-10-01T11:37:50.640Z,8.50
2022-10-01T11:41:03.973Z,8.15
2022-10-01T11:44:11.993Z,9.07
2022-10-01T11:47:37.130Z,9.50
2022-10-01T11:50:43.904Z,8.32
2022-10-01T11:53:51.656Z,11.75
2022-10-01T11:57:13.952Z,8.00
2022-10-01T12:00:16.977Z,7.20
2022-10-01T12:03:22.826Z,8.63
2022-10-01T12:06:34.408Z,5.68
2022-10-01T12:09:47.180Z,7.13
2022-10-01T12:13:03.198Z,5.80
2022-10-01T12:16:23.816Z,8.37
2022-10-01T12:19:30.060Z,5.72
2022-10-01T12:22:38.137Z,12.07
2022-10-01T12:25:40.081Z,5.68
2022-10-01T12:29:02.236Z,9.45
2022-10-01T12:32:13.803Z,9.70
2022-10-01T12:35:35.415Z,8.05
2022-10-01T12:38:54.269Z,6.82
2022-10-01T12:42:01.645Z,6.32
2022-10-01T12:45:19.924Z,5.30
2022-10-01T12:48:21.876Z,7.53
2022-10-01T12:51:53.043Z,7.40
2022-10-01T12:55:00.833Z,5.47
2022-10-01T12:58:27.985Z,10.68
2022-10-01T13:01:35.100Z,6.57
2022-10-01T13:04:57.278Z,6.90
2022-10-01T13:08:01.984Z,5.75
2022-10-01T13:11:11.496Z,7.72
2022-10-01T13:14:17.435Z,8.43
2022-10-01T13:17:19.392Z,6.68
2022-10-01T13:20:54.117Z,4.40
2022-10-01T13:23:58.932Z,4.97
2022-10-01T13:27:12.722Z,6.45
2022-10-01T13:30:25.423Z,5.78
2022-10-01T13:33:36.132Z,6.20
2022-10-01T13:36:38.408Z,5.93
2022-10-01T13:39:43.827Z,11.00
2022-10-01T13:42:46.976Z,7.03
2022-10-01T13:45:50.101Z,6.97
2022-10-01T13:48:52.541Z,12.95
2022-10-01T13:51:54.876Z,7.27
2022-10-01T13:54:58.509Z,9.02
2022-10-01T13:58:04.310Z,9.55
2022-10-01T14:01:26.045Z,8.32
2022-10-01T14:04:37.621Z,7.72
2022-10-01T14:07:39.995Z,11.20
2022-10-01T14:11:06.803Z,8.63
2022-10-01T14:14:47.480Z,7.68
2022-10-01T14:17:52.611Z,7.22
2022-10-01T14:21:09.795Z,8.13
2022-10-01T14:24:27.557Z,6.57
2022-10-01T14:27:32.220Z,5.63
2022-10-01T14:30:36.952Z,8.60
2022-10-01T14:34:02.598Z,6.35
2022-10-01T14:37:07.134Z,9.45
2022-10-01T14:40:15.193Z,8.77
2022-10-01T14:43:21.571Z,8.15
2022-10-01T14:46:23.589Z,8.60
2022-10-01T14:49:26.613Z,10.98
2022-10-01T14:52:32.217Z,9.85
2022-10-01T14:55:34.785Z,11.20
2022-10-01T14:58:38.856Z,7.75
2022-10-01T15:01:40.813Z,11.55
2022-10-01T15:04:52.957Z,9.73
2022-10-01T15:07:55.001Z,8.55
2022-10-01T15:10:58.247Z,8.90
2022-10-01T15:14:05.167Z,6.85
2022-10-01T15:17:07.964Z,6.85
2022-10-01T15:20:11.257Z,9.77
2022-10-01T15:23:14.364Z,8.85
2022-10-01T15:26:19.216Z,7.57
2022-10-01T15:29:21.228Z,9.25
2022-10-01T15:32:24.174Z,10.15
2022-10-01T15:35:26.286Z,14.57
2022-10-01T15:38:31.337Z,12.25
2022-10-01T15:41:33.685Z,10.37
2022-10-01T15:44:42.817Z,11.63
2022-10-01T15:47:57.179Z,14.32
2022-10-01T15:51:00.772Z,9.57
2022-10-01T15:54:08.794Z,10.82
2022-10-01T15:57:20.836Z,8.70
2022-10-01T16:00:27.467Z,8.63
2022-10-01T16:03:32.563Z,10.45
2022-10-01T16:06:36.926Z,8.95
2022-10-01T16:09:50.681Z,13.73
2022-10-01T16:12:52.622Z,12.27
2022-10-01T16:16:08.500Z,6.93
2022-10-01T16:19:22.687Z,10.93
2022-10-01T16:22:24.610Z,12.02
2022-10-01T16:25:31.314Z,9.63
2022-10-01T16:28:35.168Z,12.73
2022-10-01T16:31:37.348Z,10.00
2022-10-01T16:34:39.343Z,9.60
2022-10-01T16:37:41.273Z,12.95
2022-10-01T16:40:44.239Z,13.65
2022-10-01T16:43:46.236Z,10.90
2022-10-01T16:46:48.146Z,13.20
2022-10-01T16:49:50.432Z,10.60
2022-10-01T16:52:53.328Z,13.30
2022-10-01T16:55:57.096Z,18.63
2022-10-01T16:58:59.065Z,17.37
2022-10-01T17:02:02.307Z,20.73
2022-10-01T17:05:04.759Z,17.50
2022-10-01T17:08:12.714Z,20.67
2022-10-01T17:11:14.743Z,20.70
2022-10-01T17:14:17.722Z,19.57
2022-10-01T17:17:19.684Z,19.20
2022-10-01T17:20:22.181Z,22.40
2022-10-01T17:23:24.908Z,23.05
2022-10-01T17:26:26.851Z,25.23
2022-10-01T17:29:30.911Z,22.43
2022-10-01T17:32:34.042Z,23.02
2022-10-01T17:35:40.114Z,24.05
2022-10-01T17:38:42.831Z,21.80
2022-10-01T17:41:44.755Z,21.77
2022-10-01T17:44:46.695Z,24.70
2022-10-01T17:47:49.096Z,24.67
2022-10-01T17:51:07.303Z,25.52
2022-10-01T17:54:09.283Z,27.85
2022-10-01T17:57:11.367Z,26.25
2022-10-01T18:00:13.365Z,29.23
2022-10-01T18:03:18.049Z,25.52
2022-10-01T18:06:20.011Z,24.60
2022-10-01T18:09:22.443Z,19.35
2022-10-01T18:12:24.429Z,24.67
2022-10-01T18:15:26.425Z,21.33
2022-10-01T18:21:51.151Z,18.80
2022-10-01T18:24:53.315Z,17.55
2022-10-01T18:27:55.323Z,16.08
2022-10-01T18:31:12.603Z,18.00
2022-10-01T18:34:25.104Z,16.20
2022-10-01T18:37:27.019Z,12.73
2022-10-01T18:40:30.289Z,12.65
2022-10-01T18:43:34.200Z,10.88
2022-10-01T18:46:54.433Z,8.97
2022-10-01T18:50:22.491Z,9.40
2022-10-01T18:53:24.412Z,10.32
2022-10-01T18:56:36.454Z,8.00
2022-10-01T18:59:38.623Z,8.98
2022-10-01T19:02:50.583Z,10.50
2022-10-01T19:06:08.817Z,7.20
2022-10-01T19:09:27.165Z,8.57
2022-10-01T19:12:44.108Z,7.43
2022-10-01T19:15:48.928Z,6.95
2022-10-01T19:19:01.646Z,7.93
2022-10-01T19:22:29.748Z,7.07
2022-10-01T19:25:34.717Z,7.07
2022-10-01T19:28:54.791Z,6.40
2022-10-01T19:32:00.271Z,4.78
2022-10-01T19:35:02.208Z,4.80
2022-10-01T19:38:06.516Z,4.82
2022-10-01T19:41:11.959Z,5.25
2022-10-01T19:44:39.952Z,4.68
2022-10-01T19:48:02.328Z,5.60
2022-10-01T19:51:08.592Z,4.37
2022-10-01T19:54:15.554Z,4.93
2022-10-01T19:57:27.567Z,6.18
2022-10-01T20:00:30.910Z,4.82
2022-10-01T20:03:40.699Z,5.38
2022-10-01T20:06:44.105Z,4.20
2022-10-01T20:09:47.381Z,4.20
2022-10-01T20:13:08.067Z,4.18
2022-10-01T20:16:29.743Z,6.00
2022-10-01T20:19:42.138Z,5.70
2022-10-01T20:22:44.049Z,6.93
2022-10-01T20:25:49.063Z,4.35
2022-10-01T20:29:09.632Z,4.45
2022-10-01T20:32:29.758Z,4.85
2022-10-01T20:35:53.475Z,5.55
2022-10-01T20:39:17.774Z,4.47
2022-10-01T20:42:23.582Z,6.15
2022-10-01T20:45:30.063Z,5.15
2022-10-01T20:48:41.726Z,5.82
2022-10-01T20:51:51.263Z,8.13
2022-10-01T20:54:58.953Z,7.53
2022-10-01T20:58:04.132Z,6.47
2022-10-01T21:01:15.818Z,6.32
2022-10-01T21:04:21.295Z,5.35
2022-10-01T21:07:37.979Z,6.22
2022-10-01T21:10:44.853Z,5.13
2022-10-01T21:13:56.620Z,6.38
2022-10-01T21:17:00.697Z,6.45
2022-10-01T21:20:08.658Z,6.20
2022-10-01T21:23:29.224Z,6.03
2022-10-01T21:26:50.381Z,6.10
2022-10-01T21:29:58.451Z,5.07
2022-10-01T21:33:02.453Z,4.55
2022-10-01T21:36:07.694Z,5.95
2022-10-01T21:39:12.146Z,5.45
2022-10-01T21:42:15.396Z,5.23
2022-10-01T21:45:39.199Z,8.30
2022-10-01T21:48:47.418Z,5.05
2022-10-01T21:51:55.310Z,6.40
2022-10-01T21:55:17.483Z,8.93
2022-10-01T21:58:25.389Z,5.87
2022-10-01T22:01:33.929Z,8.32
2022-10-01T22:04:58.280Z,6.05
2022-10-01T22:08:09.482Z,5.15
2022-10-01T22:11:17.132Z,5.15
2022-10-01T22:14:20.207Z,5.17
2022-10-01T22:17:25.069Z,5.22
2022-10-01T22:20:29.050Z,7.65
2022-10-01T22:23:32.043Z,6.47
2022-10-01T22:26:37.628Z,6.82
2022-10-01T22:29:46.360Z,6.10
2022-10-01T22:33:07.117Z,9.05
2022-10-01T22:36:11.423Z,5.65
2022-10-01T22:39:19.217Z,6.90
2022-10-01T22:42:25.065Z,7.32
2022-10-01T22:45:34.630Z,6.57
2022-10-01T22:48:45.678Z,5.63
2022-10-01T22:51:49.787Z,8.50
2022-10-01T22:54:57.622Z,6.47
2022-10-01T22:58:06.318Z,8.18
2022-10-01T23:01:08.375Z,7.57
2022-10-01T23:04:19.652Z,8.57
2022-10-01T23:07:27.524Z,6.75
2022-10-01T23:10:32.222Z,4.07
2022-10-01T23:13:41.796Z,6.15
2022-10-01T23:16:49.734Z,5.40
2022-10-01T23:20:09.745Z,6.60
2022-10-01T23:23:20.772Z,5.38
2022-10-01T23:26:25.541Z,5.22
2022-10-01T23:29:30.271Z,7.43
2022-10-01T23:32:32.181Z,7.23
2022-10-01T23:35:42.757Z,5.78
2022-10-01T23:38:57.279Z,5.28
2022-10-01T23:42:20.225Z,5.85
2022-10-01T23:45:28.630Z,6.93
2022-10-01T23:48:33.319Z,7.63
2022-10-01T23:51:40.243Z,6.40
2022-10-01T23:54:46.660Z,6.43
2022-10-01T23:57:51.635Z,6.57
